Storm Events Database

Event Details

Event Thunderstorm Wind
Magnitude 52 kts.
State TEXAS
County/Area DELTA
WFO FWD
Report Source Law Enforcement
NCDC Data Source CSV
Begin Date 2012-06-12 00:44:00.0 CST-6
Begin Location 0N COOPER
Begin Lat/Lon 33.37/-95.68
End Date 2012-06-12 00:44:00.0 CST-6
Deaths Direct/Indirect 0/0 (fatality details below, when available...)
Injuries Direct/Indirect 0/0
Property Damage 0.00K
Crop Damage 0.00K
Episode Narrative A June cold front in combination with a very unstable airmass allowed for severe thunderstorms to develop in the late evening hours. The severe storms primarily remained north of the Interstate 20 corridor and continued past midnight. Hail up to the size of baseballs fell out of these severe storms and downburst winds reached 80 MPH.
Event Narrative A sheriff's deputy estimated 60 MPH winds in Cooper.


     ‚Äč



All events for this episode:

Location County/Zone St. Date Time T.Z. Type Mag Dth Inj PrD CrD
Totals: 0 0 79.00K 0.00K
HUBBARD CREEK LAKE STEPHENS CO. TX 06/11/2012 17:46 CST-6 Hail 1.00 in. 0 0 0.00K 0.00K
HUBBARD CREEK LAKE STEPHENS CO. TX 06/11/2012 18:00 CST-6 Hail 1.25 in. 0 0 0.00K 0.00K
BRECKENRIDGE STEPHENS CO. TX 06/11/2012 18:02 CST-6 Hail 0.88 in. 0 0 0.00K 0.00K
BRECKENRIDGE STEPHENS CO. TX 06/11/2012 18:12 CST-6 Hail 1.00 in. 0 0 0.00K 0.00K
IVAN STEPHENS CO. TX 06/11/2012 18:26 CST-6 Hail 2.75 in. 0 0 2.00K 0.00K
NEWCASTLE YOUNG CO. TX 06/11/2012 18:55 CST-6 Hail 2.75 in. 0 0 2.00K 0.00K
NEWCASTLE YOUNG CO. TX 06/11/2012 19:00 CST-6 Thunderstorm Wind 70 kts. EG 0 0 30.00K 0.00K
LAKE GRAHAM YOUNG CO. TX 06/11/2012 19:09 CST-6 Hail 0.75 in. 0 0 0.00K 0.00K
JEAN YOUNG CO. TX 06/11/2012 19:13 CST-6 Hail 2.75 in. 0 0 4.00K 0.00K
GRAHAM YOUNG CO. TX 06/11/2012 19:15 CST-6 Hail 2.00 in. 0 0 5.00K 0.00K
LOVING YOUNG CO. TX 06/11/2012 19:20 CST-6 Hail 1.00 in. 0 0 0.00K 0.00K
LOVING YOUNG CO. TX 06/11/2012 19:32 CST-6 Hail 1.75 in. 0 0 2.00K 0.00K
JERMYN JACK CO. TX 06/11/2012 19:40 CST-6 Hail 1.00 in. 0 0 0.00K 0.00K
OLNEY YOUNG CO. TX 06/11/2012 19:43 CST-6 Hail 1.00 in. 0 0 0.00K 0.00K
OLNEY YOUNG CO. TX 06/11/2012 19:43 CST-6 Thunderstorm Wind 52 kts. EG 0 0 0.00K 0.00K
NEWCASTLE YOUNG CO. TX 06/11/2012 19:54 CST-6 Thunderstorm Wind 52 kts. EG 0 0 7.00K 0.00K
PADGETT YOUNG CO. TX 06/11/2012 20:03 CST-6 Hail 2.00 in. 0 0 4.00K 0.00K
STONEBURG MONTAGUE CO. TX 06/11/2012 20:19 CST-6 Hail 1.50 in. 0 0 0.00K 0.00K
BOWIE MONTAGUE CO. TX 06/11/2012 20:22 CST-6 Hail 0.88 in. 0 0 0.00K 0.00K
DECATUR WISE CO. TX 06/11/2012 21:43 CST-6 Thunderstorm Wind 56 kts. MG 0 0 2.00K 0.00K
DECATUR WISE CO. TX 06/11/2012 21:45 CST-6 Thunderstorm Wind 56 kts. EG 0 0 2.00K 0.00K
HOPE COOKE CO. TX 06/11/2012 22:15 CST-6 Thunderstorm Wind 52 kts. EG 0 0 0.00K 0.00K
RENO PARKER CO. TX 06/11/2012 22:37 CST-6 Thunderstorm Wind 54 kts. MG 0 0 2.00K 0.00K
WHITESBORO GRAYSON CO. TX 06/11/2012 22:56 CST-6 Thunderstorm Wind 52 kts. EG 0 0 2.00K 0.00K
BAILEY FANNIN CO. TX 06/11/2012 23:47 CST-6 Hail 1.00 in. 0 0 0.00K 0.00K
RAVENNA FANNIN CO. TX 06/11/2012 23:55 CST-6 Thunderstorm Wind 52 kts. EG 0 0 15.00K 0.00K
COOPER DELTA CO. TX 06/12/2012 00:44 CST-6 Thunderstorm Wind 52 kts. EG 0 0 0.00K 0.00K
SULPHUR BLUFF HOPKINS CO. TX 06/12/2012 00:50 CST-6 Thunderstorm Wind 56 kts. EG 0 0 0.00K 0.00K
PARIS LAMAR CO. TX 06/12/2012 00:55 CST-6 Thunderstorm Wind 50 kts. EG 0 0 0.00K 0.00K
COMO HOPKINS CO. TX 06/12/2012 01:10 CST-6 Thunderstorm Wind 52 kts. EG 0 0 0.00K 0.00K
Totals: 0 0 79.00K 0.00K